Airfield :
LOGIN :

Register | Disclaimer

   EN    FR    IT 

 










Legend :    VFR   Marginal VFR   IFR   Intensive IFR   Very Intensive IFR
Visi :
Ceiling :
>= 8 km
>= 3000ft
5 to 8 km
1000 to 3000 ft
1500m to 5 km
500 to 1000 ft
800 to 1500m
200 to 500 ft
< 800m
< 200 ft
Symbols :   Thunderstorms  Fog  Heavy snow  Heavy precipitations  Wind > 20 kt
SIGMETs :     Misc.  Thunderstorms  Icing  Turbulence  Mountain Waves  Volcanic Ashes






- Airport Elevation : 1036 ft
- IATA code : ERF


EDDE - Erfurt

CURRENT METAR :
  • 211550Z VRB01KT 0300 R28/0900N FG SCT001 OVC002 05/05 Q1008 TEMPO 0100 FG OVC001

EXPIRED METARs :
  • 211520Z VRB01KT 0500 0300NE R28/1800N FG FEW001 OVC002 05/04 Q1008 TEMPO 0300 FG BKN001
  • 211450Z VRB02KT 1400 0700NE R28/P2000N BCFG OVC002 05/05 Q1008 TEMPO 0500 FG
  • 211420Z VRB02KT 2000 0900NE R28/P2000N BCFG OVC002 05/04 Q1008 TEMPO 0500 FG
  • 211350Z 07003KT 040V100 1400 0700NE R28/P2000N BCFG OVC002 05/04 Q1008 TEMPO 0500 FG
  • 211320Z 03003KT 2600 BR SCT001 OVC002 04/04 Q1008 TEMPO 3000

TAF AMD TAF EDDE
Valid from the 21 at 15:00 until the 22 at 12:00 UTC


211531Z 2115/2212 VRB03KT 0100 FG OVC001
PROB40
TEMPO 2115/2118 2500 -DZ BR OVC002
BECMG 2118/2120 22005KT 3000 BR OVC003
TEMPO 2200/2206 5000 BR SCT003



MET'MAP, your aeronautical weather chart ! - Copyright ORBIFLY December 2007 - Disclaimer

ORBIFLY MET'MAP TEAM :

Programming & Development : Alexandra Zaïnal
Concept & Development : Baudouin d'Aumeries
Co-Development & Prog : Marc-Olivier Méhu
Technical & hardware support : Manuel Goepfert

Contact : metmap@orbifly.com




SOURCES & CREDITS :

   NOAA